Time;durP1;ratioP1;P1;durP2;ratioP2;P2;SDS_P1;SDS_P2;PMS_P1;PMS_P2;Temp;Humidity;BMP_temperature;BMP_pressure;BME280_temperature;BME280_humidity;BME280_pressure;Samples;Min_cycle;Max_cycle;Signal;HPM_P1;HPM_P2
2022/07/27 00:01:16;;;;;;;0.93;0.30;;;14.40;99.90;;;;;;4998076;28;20042;-72
2022/07/27 00:03:43;;;;;;;1.23;0.20;;;14.40;99.90;;;;;;4993598;28;20040;-72
2022/07/27 00:06:09;;;;;;;2.25;0.30;;;14.30;99.90;;;;;;4998106;28;20034;-72
2022/07/27 00:08:35;;;;;;;0.80;0.20;;;14.30;99.90;;;;;;4994002;28;20455;-72
2022/07/27 00:11:01;;;;;;;1.95;0.30;;;14.30;99.90;;;;;;5012420;28;20030;-72
2022/07/27 00:13:26;;;;;;;1.67;0.30;;;14.30;99.90;;;;;;4994587;28;20525;-72
2022/07/27 00:15:52;;;;;;;1.13;0.43;;;14.20;99.90;;;;;;4996525;28;20027;-72
2022/07/27 00:18:18;;;;;;;4.75;0.70;;;14.20;99.90;;;;;;4995391;28;20054;-72
2022/07/27 00:20:43;;;;;;;1.30;0.43;;;14.20;99.90;;;;;;4993525;28;20073;-72
2022/07/27 00:23:09;;;;;;;2.03;0.45;;;14.20;99.90;;;;;;4998040;28;20045;-72
2022/07/27 00:25:35;;;;;;;7.18;0.77;;;14.10;99.90;;;;;;5001308;28;20100;-72
2022/07/27 00:28:00;;;;;;;2.95;0.50;;;14.20;99.90;;;;;;4999181;28;20038;-72
2022/07/27 00:30:26;;;;;;;4.03;0.38;;;14.20;99.90;;;;;;4995178;28;20037;-70
2022/07/27 00:32:53;;;;;;;2.17;0.40;;;14.20;99.90;;;;;;5002297;28;20038;-72
2022/07/27 00:35:18;;;;;;;1.75;0.47;;;14.20;99.90;;;;;;5005706;28;20045;-72
2022/07/27 00:37:44;;;;;;;1.67;0.50;;;14.20;99.90;;;;;;5002673;28;20475;-72
2022/07/27 00:40:10;;;;;;;1.60;0.40;;;14.10;99.90;;;;;;4999065;28;20044;-71
2022/07/27 00:42:35;;;;;;;1.17;0.43;;;14.10;99.90;;;;;;4995761;28;20486;-72
2022/07/27 00:45:02;;;;;;;2.00;0.40;;;14.10;99.90;;;;;;4995859;28;20030;-72
2022/07/27 00:47:28;;;;;;;3.17;0.98;;;14.10;99.90;;;;;;4996158;28;20548;-72
2022/07/27 00:49:53;;;;;;;1.70;0.40;;;14.10;99.90;;;;;;5007311;28;20030;-72
2022/07/27 00:52:21;;;;;;;1.67;0.40;;;14.00;99.90;;;;;;5000619;28;20080;-70
2022/07/27 00:54:47;;;;;;;2.00;0.35;;;14.10;99.90;;;;;;4995427;28;20108;-72
2022/07/27 00:57:13;;;;;;;3.67;0.82;;;14.10;99.90;;;;;;4997723;28;20081;-72
2022/07/27 00:59:40;;;;;;;1.50;0.30;;;14.10;99.90;;;;;;4994849;28;20058;-72
2022/07/27 01:02:07;;;;;;;3.72;0.50;;;14.10;99.90;;;;;;4998691;28;20112;-72
2022/07/27 01:04:33;;;;;;;1.45;0.43;;;14.20;99.90;;;;;;4995984;28;20077;-72
2022/07/27 01:06:59;;;;;;;1.95;0.32;;;14.20;99.90;;;;;;5003407;28;20502;-73
2022/07/27 01:12:13;;;;;;;2.90;0.40;;;14.20;99.90;;;;;;5001680;28;20401;-72
2022/07/27 01:14:39;;;;;;;1.73;0.40;;;14.20;99.90;;;;;;4996124;28;20038;-73
2022/07/27 01:17:06;;;;;;;5.63;1.02;;;14.20;99.90;;;;;;5001794;28;20033;-72
2022/07/27 01:19:32;;;;;;;3.22;0.15;;;14.20;99.90;;;;;;4996338;28;20036;-72
2022/07/27 01:21:57;;;;;;;1.05;0.35;;;14.20;99.90;;;;;;5000951;28;20057;-72
2022/07/27 01:24:23;;;;;;;2.15;0.57;;;14.20;99.90;;;;;;4998450;28;20061;-72
2022/07/27 01:26:48;;;;;;;3.20;0.38;;;14.20;99.90;;;;;;5005995;28;20181;-72
2022/07/27 01:29:14;;;;;;;4.10;0.60;;;14.20;99.90;;;;;;4999996;28;20112;-72
2022/07/27 01:31:40;;;;;;;2.22;0.50;;;14.30;99.90;;;;;;4997448;28;20072;-72
2022/07/27 01:34:05;;;;;;;6.55;0.77;;;14.30;99.90;;;;;;5001039;28;20068;-72
2022/07/27 01:36:31;;;;;;;1.20;0.40;;;14.30;99.90;;;;;;4997435;28;20034;-72
2022/07/27 01:38:57;;;;;;;2.38;0.40;;;14.30;99.90;;;;;;5000933;28;20048;-72
2022/07/27 01:41:22;;;;;;;3.03;0.93;;;14.40;99.90;;;;;;5005557;28;20026;-72
2022/07/27 01:43:48;;;;;;;5.72;0.93;;;14.40;99.90;;;;;;4996456;28;20026;-72
2022/07/27 01:46:14;;;;;;;3.20;0.68;;;14.40;99.90;;;;;;4999963;28;20029;-71
2022/07/27 01:48:39;;;;;;;3.40;1.05;;;14.50;99.90;;;;;;4996499;28;20088;-73
2022/07/27 01:51:05;;;;;;;3.22;0.30;;;14.50;99.90;;;;;;4999730;28;20406;-72
2022/07/27 01:53:31;;;;;;;2.47;0.43;;;14.50;99.90;;;;;;4996164;28;20034;-72
2022/07/27 01:55:56;;;;;;;3.15;0.22;;;14.50;99.90;;;;;;4999242;28;20760;-72
2022/07/27 01:58:22;;;;;;;1.27;0.20;;;14.40;99.90;;;;;;4998205;28;20034;-72
2022/07/27 02:00:48;;;;;;;1.35;0.25;;;14.40;99.90;;;;;;4998324;28;20079;-72
2022/07/27 02:03:14;;;;;;;2.47;0.22;;;14.40;99.90;;;;;;4997141;28;20038;-73
2022/07/27 02:05:40;;;;;;;3.80;0.55;;;14.40;99.90;;;;;;4996047;28;20068;-72
2022/07/27 02:08:06;;;;;;;3.72;0.38;;;14.30;99.90;;;;;;5008609;28;20847;-72
2022/07/27 02:10:33;;;;;;;3.45;0.32;;;14.30;99.90;;;;;;5000225;28;20030;-72
2022/07/27 02:12:59;;;;;;;1.30;0.38;;;14.20;99.90;;;;;;4999861;28;20030;-72
2022/07/27 02:15:26;;;;;;;1.88;0.55;;;14.20;99.90;;;;;;4997128;28;20404;-72
2022/07/27 02:17:53;;;;;;;4.88;0.70;;;14.20;99.90;;;;;;4997628;28;20117;-73
2022/07/27 02:20:21;;;;;;;5.13;0.47;;;14.20;99.90;;;;;;4997908;28;20498;-72
2022/07/27 02:22:47;;;;;;;2.15;0.40;;;14.10;99.90;;;;;;4997993;28;20037;-72
2022/07/27 02:25:14;;;;;;;1.90;0.73;;;14.10;99.90;;;;;;5003306;28;20029;-72
2022/07/27 02:27:41;;;;;;;2.67;0.45;;;14.10;99.90;;;;;;4999990;28;20038;-72
2022/07/27 02:30:08;;;;;;;5.32;0.50;;;14.10;99.90;;;;;;5000204;28;20041;-71
2022/07/27 02:32:34;;;;;;;4.10;0.57;;;14.10;99.90;;;;;;4995168;28;20030;-72
2022/07/27 02:34:59;;;;;;;2.95;0.50;;;14.10;99.90;;;;;;5000915;28;20111;-72
2022/07/27 02:37:25;;;;;;;1.65;0.30;;;14.10;99.90;;;;;;4996616;28;20038;-73
2022/07/27 02:39:51;;;;;;;2.08;0.40;;;14.00;99.90;;;;;;5014665;28;20040;-72
2022/07/27 02:42:18;;;;;;;2.35;0.40;;;14.00;99.90;;;;;;5001480;28;20053;-72
2022/07/27 02:44:43;;;;;;;1.23;0.30;;;14.00;99.90;;;;;;5012488;28;20038;-72
2022/07/27 02:47:09;;;;;;;2.22;0.50;;;14.00;99.90;;;;;;4998022;28;20032;-72
2022/07/27 02:49:36;;;;;;;1.35;0.70;;;14.00;99.90;;;;;;4996388;28;20049;-72
2022/07/27 02:52:02;;;;;;;1.83;0.52;;;14.00;99.90;;;;;;4999735;28;20491;-72
2022/07/27 02:54:31;;;;;;;1.42;0.32;;;14.00;99.90;;;;;;4995631;28;20056;-72
2022/07/27 02:56:57;;;;;;;3.50;0.50;;;14.00;99.90;;;;;;4996680;28;20678;-73
2022/07/27 02:59:22;;;;;;;3.80;0.30;;;14.00;99.90;;;;;;4997093;28;20052;-72
2022/07/27 03:01:48;;;;;;;2.35;0.47;;;14.00;99.90;;;;;;4996378;28;20033;-72
2022/07/27 03:04:14;;;;;;;1.40;0.40;;;14.00;99.90;;;;;;4999856;28;20033;-72
2022/07/27 03:06:41;;;;;;;3.88;0.40;;;14.10;99.90;;;;;;4995916;28;20061;-72
2022/07/27 03:09:07;;;;;;;2.00;0.85;;;14.10;99.90;;;;;;4997769;28;20038;-72
2022/07/27 03:11:33;;;;;;;3.13;0.60;;;14.10;99.90;;;;;;4993455;28;20458;-71
2022/07/27 03:13:58;;;;;;;3.25;0.40;;;14.20;99.90;;;;;;4997603;28;20042;-72
2022/07/27 03:16:24;;;;;;;2.97;0.60;;;14.20;99.90;;;;;;4996000;28;20031;-72
2022/07/27 03:18:49;;;;;;;2.20;0.40;;;14.20;99.90;;;;;;4997668;28;20489;-71
2022/07/27 03:21:15;;;;;;;5.03;0.85;;;14.20;99.90;;;;;;4995113;28;20034;-72
2022/07/27 03:23:41;;;;;;;2.28;0.63;;;14.30;99.90;;;;;;4996444;28;20034;-72
2022/07/27 03:26:06;;;;;;;3.95;0.30;;;14.30;99.90;;;;;;5005394;28;20026;-72
2022/07/27 03:28:32;;;;;;;1.80;0.55;;;14.40;99.90;;;;;;4993958;28;20869;-71
2022/07/27 03:30:58;;;;;;;3.15;0.68;;;14.40;99.90;;;;;;4998983;28;20033;-71
2022/07/27 03:33:23;;;;;;;3.13;0.50;;;14.40;99.90;;;;;;4994050;28;20404;-72
2022/07/27 03:35:49;;;;;;;4.45;0.68;;;14.50;99.90;;;;;;4996630;28;20033;-72
2022/07/27 03:38:15;;;;;;;0.95;0.43;;;14.50;99.90;;;;;;4994619;28;20134;-72
2022/07/27 03:40:41;;;;;;;1.60;0.30;;;14.50;99.90;;;;;;5015039;28;20034;-72
2022/07/27 03:43:07;;;;;;;4.38;0.40;;;14.60;99.90;;;;;;4992696;28;20030;-72
2022/07/27 03:45:32;;;;;;;3.72;0.38;;;14.60;99.90;;;;;;4996114;28;20041;-70
2022/07/27 03:47:59;;;;;;;4.97;0.73;;;14.60;99.90;;;;;;4995322;28;20035;-72
2022/07/27 03:50:24;;;;;;;2.95;0.40;;;14.60;99.90;;;;;;5013395;28;20065;-72
2022/07/27 03:52:50;;;;;;;4.68;0.95;;;14.60;99.90;;;;;;4994584;28;20030;-72
2022/07/27 03:55:16;;;;;;;4.47;0.52;;;14.60;99.90;;;;;;4994179;28;20100;-72
2022/07/27 03:57:42;;;;;;;3.35;0.30;;;14.70;99.90;;;;;;4996179;28;20038;-72
2022/07/27 04:00:11;;;;;;;2.15;0.73;;;14.70;99.90;;;;;;4996334;28;20027;-72
2022/07/27 04:02:37;;;;;;;4.47;0.88;;;14.70;99.90;;;;;;4995415;28;20034;-73
2022/07/27 04:05:02;;;;;;;1.30;0.40;;;14.70;99.90;;;;;;4994554;28;20042;-71
2022/07/27 04:07:28;;;;;;;3.20;0.47;;;14.80;99.90;;;;;;4998514;28;20034;-72
2022/07/27 04:09:54;;;;;;;1.33;0.50;;;14.80;99.90;;;;;;4994789;28;20057;-72
2022/07/27 04:12:19;;;;;;;0.65;0.40;;;14.80;99.90;;;;;;4998183;28;20502;-71
2022/07/27 04:14:45;;;;;;;1.25;0.45;;;14.80;99.90;;;;;;5004551;28;20638;-72
2022/07/27 04:17:10;;;;;;;1.95;0.20;;;14.80;99.90;;;;;;4996388;28;20026;-72
2022/07/27 04:19:36;;;;;;;2.65;0.52;;;14.80;99.90;;;;;;4995996;28;20402;-73
2022/07/27 04:22:02;;;;;;;2.55;0.68;;;14.90;99.90;;;;;;4997929;28;20072;-72
2022/07/27 04:24:27;;;;;;;2.55;0.98;;;14.90;99.90;;;;;;4994145;28;20046;-72
2022/07/27 04:26:53;;;;;;;2.22;0.30;;;14.90;99.90;;;;;;5004329;28;20083;-72
2022/07/27 04:29:18;;;;;;;1.63;0.47;;;14.90;99.90;;;;;;4995164;28;20108;-72
2022/07/27 04:31:44;;;;;;;1.83;0.38;;;14.90;99.90;;;;;;5014024;28;20061;-72
2022/07/27 04:34:09;;;;;;;2.05;0.50;;;15.00;99.90;;;;;;4995843;28;20038;-72
2022/07/27 04:36:37;;;;;;;3.80;0.70;;;15.00;99.90;;;;;;4997072;28;20491;-71
2022/07/27 04:39:03;;;;;;;3.67;0.88;;;15.00;99.90;;;;;;4996449;28;20039;-72
2022/07/27 04:41:28;;;;;;;2.33;0.40;;;15.00;99.90;;;;;;4998932;28;20038;-72
2022/07/27 04:43:54;;;;;;;2.58;0.20;;;15.00;99.90;;;;;;4997299;28;20417;-72
2022/07/27 04:46:19;;;;;;;3.05;0.40;;;15.10;99.90;;;;;;4998752;28;20387;-72
2022/07/27 04:48:45;;;;;;;3.70;0.40;;;15.10;99.90;;;;;;5000630;28;20046;-72
2022/07/27 04:51:14;;;;;;;7.20;0.80;;;15.10;99.90;;;;;;5013577;28;20026;-71
2022/07/27 04:53:40;;;;;;;2.00;0.68;;;15.10;99.90;;;;;;4997962;28;20038;-72
2022/07/27 04:56:07;;;;;;;3.40;0.40;;;15.20;99.90;;;;;;5010609;28;20557;-71
2022/07/27 04:58:32;;;;;;;0.47;0.30;;;15.20;99.90;;;;;;4995883;28;20026;-73
2022/07/27 05:00:58;;;;;;;2.08;0.20;;;15.20;99.90;;;;;;4997620;28;20510;-72
2022/07/27 05:03:23;;;;;;;1.65;0.50;;;15.20;99.90;;;;;;4997325;28;20844;-72
2022/07/27 05:05:49;;;;;;;2.85;0.50;;;15.20;99.90;;;;;;4996131;28;20793;-71
2022/07/27 05:08:14;;;;;;;2.35;0.30;;;15.20;99.90;;;;;;5009393;28;20045;-72
2022/07/27 05:10:40;;;;;;;2.00;0.28;;;15.20;99.90;;;;;;5006415;28;20022;-72
2022/07/27 05:13:06;;;;;;;4.72;0.50;;;15.30;99.90;;;;;;5003891;28;20030;-72
2022/07/27 05:15:31;;;;;;;1.52;0.20;;;15.30;99.90;;;;;;5005955;28;20034;-72
2022/07/27 05:17:57;;;;;;;3.72;0.38;;;15.30;99.90;;;;;;5005496;28;20030;-73
2022/07/27 05:20:24;;;;;;;3.67;0.30;;;15.40;99.90;;;;;;5004134;28;20093;-72
2022/07/27 05:22:50;;;;;;;3.05;0.80;;;15.40;99.90;;;;;;5006036;28;20022;-72
2022/07/27 05:25:15;;;;;;;4.10;0.45;;;15.40;99.90;;;;;;5005049;28;20979;-74
2022/07/27 05:27:41;;;;;;;1.95;0.47;;;15.40;99.90;;;;;;5005833;28;20109;-73
2022/07/27 05:30:08;;;;;;;0.75;0.10;;;15.50;99.90;;;;;;5007162;28;20029;-72
2022/07/27 05:32:34;;;;;;;4.80;0.22;;;15.50;99.90;;;;;;5002512;28;20042;-73
2022/07/27 05:34:59;;;;;;;1.85;0.28;;;15.50;99.90;;;;;;5005573;28;20472;-73
2022/07/27 05:37:25;;;;;;;2.08;0.30;;;15.50;99.90;;;;;;5003621;28;20060;-73
2022/07/27 05:39:50;;;;;;;3.60;0.20;;;15.60;99.90;;;;;;5007534;28;20034;-73
2022/07/27 05:42:16;;;;;;;0.55;0.17;;;15.60;99.90;;;;;;5005336;28;20483;-73
2022/07/27 05:44:41;;;;;;;1.35;0.40;;;15.60;99.90;;;;;;5006421;28;20037;-71
2022/07/27 05:47:07;;;;;;;1.45;0.15;;;15.70;99.90;;;;;;5004697;28;20520;-73
2022/07/27 05:49:33;;;;;;;1.88;0.20;;;15.80;99.90;;;;;;4999908;28;20059;-73
2022/07/27 05:51:59;;;;;;;2.58;0.22;;;15.80;99.90;;;;;;5022518;28;20045;-73
2022/07/27 05:54:25;;;;;;;2.00;0.20;;;16.00;99.90;;;;;;5007269;28;20096;-72
2022/07/27 05:56:51;;;;;;;3.70;0.13;;;16.00;99.90;;;;;;5007542;28;20443;-72
2022/07/27 05:59:16;;;;;;;7.30;0.70;;;16.10;99.90;;;;;;5004781;28;20080;-73
2022/07/27 06:01:42;;;;;;;5.32;0.30;;;16.20;99.90;;;;;;5006083;28;20041;-73
2022/07/27 06:04:08;;;;;;;5.75;0.55;;;16.30;99.90;;;;;;5004306;28;20034;-75
2022/07/27 06:09:18;;;;;;;2.55;0.30;;;16.50;99.90;;;;;;5003829;28;20100;-73
2022/07/27 06:11:44;;;;;;;2.40;0.30;;;16.50;99.90;;;;;;5004749;28;20041;-74
2022/07/27 06:14:09;;;;;;;1.52;0.30;;;16.60;99.90;;;;;;5002886;28;20038;-73
2022/07/27 06:16:35;;;;;;;3.83;0.20;;;16.60;99.90;;;;;;5005636;28;20088;-73
2022/07/27 06:19:01;;;;;;;5.18;0.57;;;16.70;99.90;;;;;;5005657;28;20033;-73
2022/07/27 06:21:27;;;;;;;4.30;0.40;;;16.70;99.90;;;;;;5004439;28;20536;-73
2022/07/27 06:23:56;;;;;;;3.58;0.30;;;16.70;99.90;;;;;;5003824;28;20076;-72
2022/07/27 06:26:22;;;;;;;2.00;0.28;;;16.80;99.90;;;;;;5002403;28;20037;-73
2022/07/27 06:28:47;;;;;;;3.45;0.20;;;16.90;99.90;;;;;;5005139;28;20587;-73
2022/07/27 06:31:14;;;;;;;1.83;0.30;;;17.00;99.90;;;;;;5000690;28;20046;-72
2022/07/27 06:33:40;;;;;;;3.40;0.30;;;17.20;99.90;;;;;;5004384;28;20176;-73
2022/07/27 06:36:07;;;;;;;3.17;0.35;;;17.40;99.90;;;;;;5004131;28;20045;-73
2022/07/27 06:38:33;;;;;;;2.78;0.70;;;17.70;99.90;;;;;;5001062;28;20045;-74
2022/07/27 06:40:59;;;;;;;2.63;0.50;;;18.00;99.90;;;;;;5004061;28;20041;-73
2022/07/27 06:43:29;;;;;;;1.35;0.10;;;18.20;99.90;;;;;;5001002;28;20045;-73
2022/07/27 06:45:55;;;;;;;4.27;0.67;;;18.50;99.90;;;;;;4999673;28;20742;-71
2022/07/27 06:48:21;;;;;;;3.55;0.43;;;18.70;99.90;;;;;;5001496;28;20042;-73
2022/07/27 06:50:47;;;;;;;2.50;0.20;;;19.10;99.90;;;;;;5002481;28;20120;-72
2022/07/27 06:53:13;;;;;;;2.30;0.10;;;19.50;99.60;;;;;;5002271;28;20033;-74
2022/07/27 06:55:38;;;;;;;1.48;0.30;;;19.90;99.90;;;;;;5001440;28;20048;-74
2022/07/27 06:58:04;;;;;;;2.60;0.10;;;20.20;99.90;;;;;;5005764;28;20511;-74
2022/07/27 07:00:30;;;;;;;1.42;0.20;;;20.50;98.50;;;;;;5003541;28;20041;-73
2022/07/27 07:02:58;;;;;;;2.42;0.45;;;20.80;98.10;;;;;;5004842;28;21529;-74
2022/07/27 07:05:24;;;;;;;5.78;0.50;;;21.20;97.70;;;;;;5002788;28;20037;-73
2022/07/27 07:07:51;;;;;;;1.65;0.32;;;21.70;97.00;;;;;;5002006;28;20409;-73
2022/07/27 07:10:17;;;;;;;0.80;0.30;;;22.30;95.90;;;;;;5001133;28;20080;-72
2022/07/27 07:12:42;;;;;;;0.35;0.10;;;22.50;94.30;;;;;;5003065;28;20033;-73
2022/07/27 07:15:09;;;;;;;2.10;0.50;;;22.60;92.80;;;;;;5002698;28;20043;-74
2022/07/27 07:17:34;;;;;;;2.10;0.20;;;22.50;93.50;;;;;;5001858;28;20657;-75
2022/07/27 07:20:00;;;;;;;1.15;0.20;;;22.60;92.80;;;;;;5001829;28;20042;-73
2022/07/27 07:22:25;;;;;;;1.52;0.22;;;22.60;92.60;;;;;;5001491;28;20045;-73
2022/07/27 07:24:51;;;;;;;0.60;0.20;;;22.60;94.00;;;;;;5002889;28;20070;-73
2022/07/27 07:27:22;;;;;;;2.17;0.50;;;22.70;93.10;;;;;;5002818;28;20113;-73
2022/07/27 07:29:48;;;;;;;2.72;0.43;;;22.90;92.80;;;;;;5000052;28;20034;-73
2022/07/27 07:32:15;;;;;;;1.10;0.28;;;22.90;92.90;;;;;;5001164;28;20037;-72
2022/07/27 07:34:41;;;;;;;1.08;0.30;;;23.70;91.90;;;;;;5001261;28;20100;-74
2022/07/27 07:37:07;;;;;;;1.27;0.25;;;24.50;92.00;;;;;;5001806;28;20121;-74
2022/07/27 07:39:32;;;;;;;1.73;0.40;;;25.40;90.10;;;;;;5003696;28;20488;-74
2022/07/27 07:41:58;;;;;;;4.97;0.30;;;26.20;89.50;;;;;;5002752;28;20034;-72
2022/07/27 07:44:24;;;;;;;1.75;0.47;;;26.90;85.20;;;;;;5000996;28;20646;-74
2022/07/27 07:46:49;;;;;;;4.35;0.60;;;27.10;84.30;;;;;;5002081;28;20797;-72
2022/07/27 07:49:15;;;;;;;3.75;0.68;;;27.10;83.00;;;;;;5001082;28;20049;-74
2022/07/27 07:51:41;;;;;;;4.00;0.80;;;27.40;82.20;;;;;;5000625;28;20038;-73
2022/07/27 07:54:07;;;;;;;3.92;0.40;;;27.10;80.00;;;;;;4998987;28;20042;-70
2022/07/27 07:56:33;;;;;;;1.08;0.35;;;26.80;81.00;;;;;;5003520;28;20048;-72
2022/07/27 07:59:00;;;;;;;0.98;0.50;;;26.40;77.60;;;;;;5003531;28;20547;-73
2022/07/27 08:01:25;;;;;;;5.13;0.40;;;25.60;77.30;;;;;;5000492;28;20057;-73
2022/07/27 08:03:51;;;;;;;1.75;0.65;;;25.00;80.30;;;;;;4999850;28;20033;-73
2022/07/27 08:06:18;;;;;;;1.63;0.30;;;24.50;80.90;;;;;;4999540;28;20041;-72
2022/07/27 08:08:43;;;;;;;0.57;0.10;;;24.00;82.40;;;;;;5002910;28;20069;-73
2022/07/27 08:11:09;;;;;;;1.67;0.20;;;23.50;82.60;;;;;;5001376;28;20117;-71
2022/07/27 08:13:35;;;;;;;1.17;0.30;;;23.00;83.20;;;;;;5002704;28;20043;-74
2022/07/27 08:16:00;;;;;;;1.42;0.35;;;22.70;83.10;;;;;;5004272;28;20524;-73
2022/07/27 08:18:26;;;;;;;1.52;0.15;;;22.40;81.80;;;;;;5005733;28;20038;-70
2022/07/27 08:20:52;;;;;;;1.10;0.20;;;22.20;83.80;;;;;;5005419;28;20442;-72
2022/07/27 08:23:18;;;;;;;0.90;0.77;;;22.00;83.50;;;;;;5005680;28;20370;-72
2022/07/27 08:25:44;;;;;;;1.20;0.10;;;21.80;81.10;;;;;;5005169;28;20518;-73
2022/07/27 08:28:10;;;;;;;2.50;0.40;;;21.70;82.70;;;;;;5006769;28;20101;-73
2022/07/27 08:30:36;;;;;;;1.48;0.28;;;21.60;83.80;;;;;;5004510;28;20180;-72
2022/07/27 08:33:03;;;;;;;0.43;0.08;;;21.50;82.80;;;;;;5005842;28;20034;-72
2022/07/27 08:35:31;;;;;;;2.05;0.28;;;21.30;85.20;;;;;;5004484;28;20046;-73
2022/07/27 08:37:57;;;;;;;1.65;0.38;;;21.30;87.20;;;;;;5005244;28;20563;-73
2022/07/27 08:40:23;;;;;;;1.15;0.20;;;21.30;85.90;;;;;;5005939;28;20084;-71
2022/07/27 08:42:48;;;;;;;3.38;0.20;;;21.30;86.20;;;;;;5003297;28;20034;-72
2022/07/27 08:45:18;;;;;;;1.73;0.20;;;21.20;86.40;;;;;;5006010;28;20038;-70
2022/07/27 08:47:45;;;;;;;5.18;0.60;;;21.10;86.70;;;;;;5005229;28;20433;-73
2022/07/27 08:50:22;;;;;;;2.55;0.15;;;21.10;88.30;;;;;;5003909;28;20637;-73
2022/07/27 08:53:09;;;;;;;2.08;0.25;;;21.10;88.80;;;;;;5004211;28;20032;-72
2022/07/27 08:55:40;;;;;;;2.55;0.10;;;21.10;87.90;;;;;;5004610;28;20034;-73
2022/07/27 08:58:08;;;;;;;2.70;0.28;;;21.10;88.60;;;;;;5004548;28;20038;-73
2022/07/27 09:00:35;;;;;;;4.80;0.20;;;21.20;88.60;;;;;;5004493;28;20033;-73
2022/07/27 09:03:01;;;;;;;5.05;0.20;;;21.30;88.40;;;;;;5004133;28;20030;-72
2022/07/27 09:05:28;;;;;;;5.05;0.57;;;21.40;88.80;;;;;;5004875;28;20037;-73
2022/07/27 09:08:00;;;;;;;2.67;0.38;;;21.40;89.70;;;;;;5007818;28;20076;-72
2022/07/27 09:10:38;;;;;;;2.63;0.45;;;21.60;88.40;;;;;;5003417;28;20116;-71
2022/07/27 09:13:29;;;;;;;1.17;0.10;;;21.60;85.50;;;;;;5003289;28;20030;-73
2022/07/27 09:16:02;;;;;;;1.13;0.20;;;21.60;85.30;;;;;;5003764;28;20034;-72
2022/07/27 09:18:29;;;;;;;1.48;0.35;;;21.60;87.80;;;;;;5004190;28;20041;-70
2022/07/27 09:21:12;;;;;;;3.05;0.60;;;21.60;89.30;;;;;;5003485;28;20490;-71
2022/07/27 09:23:40;;;;;;;2.15;0.38;;;21.70;88.20;;;;;;5002131;28;20092;-72
2022/07/27 09:26:27;;;;;;;1.23;0.20;;;21.70;86.10;;;;;;5006123;28;20049;-73
2022/07/27 09:28:54;;;;;;;2.10;0.13;;;21.70;87.30;;;;;;5004211;28;20568;-73
2022/07/27 09:31:20;;;;;;;3.63;0.20;;;21.70;88.30;;;;;;5002148;28;20065;-72
2022/07/27 09:33:51;;;;;;;4.28;0.45;;;21.90;88.30;;;;;;5003301;28;20077;-71
2022/07/27 09:36:19;;;;;;;1.65;0.30;;;21.80;85.60;;;;;;5003142;28;20042;-73
2022/07/27 09:39:01;;;;;;;0.63;0.10;;;21.80;86.10;;;;;;5005075;28;20030;-73
2022/07/27 09:41:37;;;;;;;3.22;0.52;;;21.80;85.50;;;;;;5004339;28;20042;-71
2022/07/27 09:44:02;;;;;;;1.10;0.28;;;21.80;86.40;;;;;;5001838;28;20462;-73
2022/07/27 09:46:33;;;;;;;2.55;0.20;;;21.90;87.30;;;;;;5002537;28;20048;-72
2022/07/27 09:48:59;;;;;;;1.60;0.30;;;22.00;87.40;;;;;;5004641;28;20045;-73
2022/07/27 09:51:25;;;;;;;1.63;0.38;;;22.10;87.10;;;;;;5002371;28;20030;-73
2022/07/27 09:53:56;;;;;;;3.40;0.20;;;22.20;83.80;;;;;;5003620;28;20018;-70
2022/07/27 09:56:27;;;;;;;3.13;0.30;;;22.10;82.90;;;;;;5003756;28;20505;-73
2022/07/27 09:58:55;;;;;;;2.65;0.20;;;22.10;84.20;;;;;;5005518;28;20037;-72
2022/07/27 10:01:29;;;;;;;0.55;0.10;;;22.20;84.20;;;;;;5001015;28;20449;-71
2022/07/27 10:04:01;;;;;;;2.20;0.30;;;22.20;85.90;;;;;;5002619;28;20103;-71
2022/07/27 10:06:27;;;;;;;3.60;0.20;;;22.30;84.70;;;;;;5003960;28;20048;-72
2022/07/27 10:08:55;;;;;;;4.63;0.20;;;22.30;80.90;;;;;;5002933;28;20034;-71
2022/07/27 10:11:21;;;;;;;0.70;0.20;;;22.10;78.40;;;;;;5003138;28;20041;-72
2022/07/27 10:13:48;;;;;;;1.48;0.35;;;22.10;81.70;;;;;;5002639;28;20030;-73
2022/07/27 10:16:18;;;;;;;3.22;0.20;;;22.10;81.90;;;;;;5002752;28;20036;-73
2022/07/27 10:19:02;;;;;;;2.22;0.10;;;22.20;82.30;;;;;;5003599;28;20030;-73
2022/07/27 10:21:28;;;;;;;4.70;0.17;;;22.40;82.30;;;;;;5000136;28;20037;-73
2022/07/27 10:23:55;;;;;;;3.13;0.47;;;22.40;81.40;;;;;;5002224;28;20030;-73
2022/07/27 10:26:26;;;;;;;1.67;0.10;;;22.40;81.70;;;;;;5004323;28;20119;-73
2022/07/27 10:29:04;;;;;;;0.40;0.20;;;22.60;82.60;;;;;;5003429;28;20088;-71
2022/07/27 10:31:35;;;;;;;5.30;0.20;;;22.70;83.80;;;;;;5001859;28;20748;-72
2022/07/27 10:34:03;;;;;;;1.52;0.20;;;22.80;84.40;;;;;;5001801;28;20119;-73
2022/07/27 10:36:28;;;;;;;0.68;0.10;;;22.70;82.80;;;;;;5001023;28;20038;-73
2022/07/27 10:38:59;;;;;;;1.23;0.32;;;22.40;82.30;;;;;;5002318;28;20037;-73
2022/07/27 10:41:26;;;;;;;3.85;0.13;;;22.50;83.40;;;;;;5002750;28;20224;-73
2022/07/27 10:44:13;;;;;;;0.75;0.10;;;22.40;82.10;;;;;;5000021;28;20030;-74
2022/07/27 10:46:43;;;;;;;1.75;0.10;;;22.40;82.70;;;;;;4998460;28;20029;-72
2022/07/27 10:49:23;;;;;;;0.55;0.10;;;22.50;82.30;;;;;;5005697;28;20091;-72
2022/07/27 10:51:49;;;;;;;0.77;0.15;;;22.70;82.30;;;;;;5001081;28;20037;-72
2022/07/27 10:54:35;;;;;;;3.03;0.17;;;22.80;81.10;;;;;;5000425;28;20481;-73
2022/07/27 10:57:03;;;;;;;1.42;0.45;;;22.80;80.80;;;;;;5002397;28;20403;-73
2022/07/27 10:59:38;;;;;;;0.10;0.00;;;22.90;81.40;;;;;;5002633;28;20029;-73
2022/07/27 11:02:09;;;;;;;1.02;0.20;;;23.00;81.00;;;;;;5017833;28;20033;-72
2022/07/27 11:04:44;;;;;;;2.08;0.10;;;23.00;81.10;;;;;;4992598;28;20038;-71
2022/07/27 11:07:10;;;;;;;0.32;0.05;;;22.90;82.70;;;;;;5000208;28;20037;-71
2022/07/27 11:09:41;;;;;;;0.65;0.15;;;22.90;83.60;;;;;;4994720;28;20022;-73
2022/07/27 11:12:09;;;;;;;0.60;0.10;;;22.90;81.80;;;;;;5013242;28;20045;-72
2022/07/27 11:14:44;;;;;;;0.30;0.10;;;23.00;83.20;;;;;;4994010;28;20125;-73
2022/07/27 11:17:10;;;;;;;2.25;0.15;;;23.10;80.90;;;;;;4993463;28;20407;-72
2022/07/27 11:19:36;;;;;;;3.85;0.30;;;23.10;81.10;;;;;;4998535;28;20030;-72
2022/07/27 11:22:02;;;;;;;3.10;0.17;;;23.10;80.10;;;;;;5003126;28;20057;-73
2022/07/27 11:24:27;;;;;;;0.17;0.00;;;23.20;79.00;;;;;;5006346;28;20022;-72
2022/07/27 11:26:53;;;;;;;0.73;0.30;;;23.10;75.80;;;;;;5005074;28;21675;-72
2022/07/27 11:29:22;;;;;;;0.30;0.00;;;23.20;78.00;;;;;;4994443;28;20519;-72
2022/07/27 11:31:53;;;;;;;0.17;0.00;;;23.00;75.80;;;;;;4994301;28;20030;-72
2022/07/27 11:34:29;;;;;;;1.40;0.10;;;23.10;77.00;;;;;;4994157;28;20038;-73
2022/07/27 11:37:00;;;;;;;0.20;0.00;;;23.00;75.90;;;;;;4997715;28;20042;-73
2022/07/27 11:39:27;;;;;;;1.27;0.43;;;23.00;78.20;;;;;;4995424;28;20168;-70
2022/07/27 11:41:55;;;;;;;0.45;0.20;;;23.10;77.90;;;;;;5000340;28;20033;-73
2022/07/27 11:44:21;;;;;;;0.47;0.15;;;23.10;79.10;;;;;;4997350;28;20410;-73
2022/07/27 11:46:48;;;;;;;1.13;0.20;;;23.10;78.90;;;;;;4996270;28;20089;-73
2022/07/27 11:49:15;;;;;;;0.63;0.20;;;23.00;77.80;;;;;;4995058;28;20034;-73
2022/07/27 11:51:43;;;;;;;0.75;0.10;;;22.90;75.90;;;;;;4999047;28;20491;-73
2022/07/27 11:54:25;;;;;;;0.28;0.10;;;22.90;76.00;;;;;;4994923;28;20180;-73
2022/07/27 11:56:54;;;;;;;3.50;0.55;;;22.90;78.20;;;;;;5011282;28;20592;-73
2022/07/27 11:59:28;;;;;;;0.73;0.15;;;22.90;78.80;;;;;;4997786;28;20070;-71
2022/07/27 12:02:02;;;;;;;0.25;0.10;;;23.00;76.00;;;;;;4994607;28;20483;-73
2022/07/27 12:04:30;;;;;;;5.53;0.35;;;22.90;79.90;;;;;;4996642;28;20521;-73
2022/07/27 12:06:58;;;;;;;2.58;0.17;;;22.90;80.30;;;;;;4994581;28;20096;-73
2022/07/27 12:09:25;;;;;;;1.75;0.38;;;22.80;79.60;;;;;;4997273;28;20052;-73
2022/07/27 12:11:59;;;;;;;1.67;0.10;;;22.70;80.00;;;;;;4995571;28;20561;-72
2022/07/27 12:14:33;;;;;;;0.30;0.17;;;22.80;81.80;;;;;;4993779;28;20573;-73
2022/07/27 12:17:15;;;;;;;2.35;0.10;;;22.70;79.90;;;;;;4997848;28;20125;-73
2022/07/27 12:19:42;;;;;;;1.13;0.00;;;22.70;79.10;;;;;;4998067;28;20562;-73
2022/07/27 12:22:08;;;;;;;0.40;0.00;;;22.60;79.00;;;;;;5010662;28;20035;-73
2022/07/27 12:24:41;;;;;;;1.92;0.20;;;22.60;79.20;;;;;;4996486;28;20374;-73
2022/07/27 12:27:12;;;;;;;1.50;0.30;;;22.70;80.00;;;;;;5003338;28;20398;-73
2022/07/27 12:29:53;;;;;;;2.72;0.10;;;22.80;79.90;;;;;;4995326;28;20030;-73
2022/07/27 12:32:19;;;;;;;1.52;0.10;;;22.70;81.20;;;;;;4994753;28;20064;-70
2022/07/27 12:34:45;;;;;;;0.55;0.13;;;22.80;81.80;;;;;;4994533;28;20089;-73
2022/07/27 12:37:12;;;;;;;1.63;0.30;;;22.90;81.90;;;;;;4995982;28;20038;-71
2022/07/27 12:39:41;;;;;;;2.17;0.10;;;23.00;82.30;;;;;;4994985;28;20050;-73
2022/07/27 12:42:08;;;;;;;1.75;0.40;;;23.00;81.10;;;;;;4996974;28;20034;-73
2022/07/27 12:44:36;;;;;;;0.30;0.10;;;22.90;81.90;;;;;;4994126;28;20039;-73
2022/07/27 12:50:16;;;;;;;1.90;0.20;;;22.40;83.70;;;;;;4996055;28;20104;-72
2022/07/27 12:52:52;;;;;;;3.70;0.35;;;22.00;84.10;;;;;;4995655;28;20026;-72
2022/07/27 12:55:20;;;;;;;1.48;0.10;;;21.80;84.80;;;;;;4996555;28;20097;-73
2022/07/27 12:57:47;;;;;;;0.75;0.20;;;21.60;85.70;;;;;;4997702;28;20333;-72